Time;durP1;ratioP1;P1;durP2;ratioP2;P2;SDS_P1;SDS_P2;PMS_P1;PMS_P2;Temp;Humidity;BMP_temperature;BMP_pressure;BME280_temperature;BME280_humidity;BME280_pressure;Samples;Min_cycle;Max_cycle;Signal;HPM_P1;HPM_P2
2022/01/21 00:01:24;;;;;;;26.20;3.38;;;;;;;;;;4964385;28;20502;-86
2022/01/21 00:03:51;;;;;;;12.10;2.17;;;;;;;;;;4963877;28;20060;-87
2022/01/21 00:06:17;;;;;;;19.52;2.53;;;;;;;;;;4964274;28;20038;-86
2022/01/21 00:08:44;;;;;;;16.40;3.40;;;;;;;;;;4961496;28;21383;-86
2022/01/21 00:11:12;;;;;;;25.45;3.30;;;;;;;;;;4967612;28;20042;-87
2022/01/21 00:13:38;;;;;;;12.30;2.67;;;;;;;;;;4963064;28;20026;-86
2022/01/21 00:16:05;;;;;;;16.38;2.53;;;;;;;;;;4976253;28;20116;-87
2022/01/21 00:18:32;;;;;;;17.13;2.30;;;;;;;;;;4973251;28;20505;-86
2022/01/21 00:31:57;;;;;;;10.27;1.40;;;;;;;;;;4975693;28;20069;-86
2022/01/21 00:34:23;;;;;;;5.22;0.93;;;;;;;;;;4965468;28;21011;-86
2022/01/21 00:36:49;;;;;;;3.05;1.10;;;;;;;;;;4979730;28;20042;-86
2022/01/21 00:39:17;;;;;;;3.60;1.20;;;;;;;;;;4968674;28;20046;-86
2022/01/21 00:41:57;;;;;;;11.00;0.70;;;;;;;;;;4975494;28;20500;-87
2022/01/21 00:44:23;;;;;;;7.90;1.10;;;;;;;;;;4968046;28;20383;-87
2022/01/21 00:46:49;;;;;;;11.85;1.73;;;;;;;;;;4966716;28;20089;-86
2022/01/21 00:49:16;;;;;;;13.32;1.42;;;;;;;;;;4966280;28;20033;-86
2022/01/21 00:51:42;;;;;;;16.90;1.83;;;;;;;;;;4981917;28;20208;-86
2022/01/21 00:54:08;;;;;;;17.55;1.63;;;;;;;;;;4964137;28;20744;-86
2022/01/21 00:56:34;;;;;;;10.23;1.77;;;;;;;;;;4977866;28;20105;-86
2022/01/21 00:59:00;;;;;;;20.23;1.42;;;;;;;;;;4979197;28;20058;-86
2022/01/21 01:01:26;;;;;;;16.95;2.13;;;;;;;;;;4979814;28;20038;-86
2022/01/21 01:03:52;;;;;;;9.43;1.52;;;;;;;;;;4961406;28;20066;-86
2022/01/21 01:06:18;;;;;;;11.38;2.00;;;;;;;;;;4969771;28;20027;-86
2022/01/21 01:08:44;;;;;;;10.68;1.42;;;;;;;;;;4961550;28;20026;-86
2022/01/21 01:21:58;;;;;;;23.20;1.58;;;;;;;;;;4978032;28;20105;-87
2022/01/21 01:29:53;;;;;;;25.17;3.03;;;;;;;;;;4977607;28;20396;-87
2022/01/21 01:32:19;;;;;;;21.77;3.00;;;;;;;;;;4972397;28;20030;-86
2022/01/21 01:34:45;;;;;;;25.42;3.03;;;;;;;;;;4964847;28;20046;-86
2022/01/21 01:37:24;;;;;;;23.67;2.78;;;;;;;;;;4982073;28;20030;-86
2022/01/21 01:40:00;;;;;;;29.98;2.50;;;;;;;;;;4962766;28;20042;-87
2022/01/21 01:50:34;;;;;;;36.85;2.72;;;;;;;;;;4982901;28;21067;-86
2022/01/21 01:53:03;;;;;;;10.75;2.20;;;;;;;;;;4974833;28;20581;-86
2022/01/21 01:55:29;;;;;;;17.30;1.80;;;;;;;;;;4979787;28;20136;-87
2022/01/21 01:57:55;;;;;;;15.88;2.05;;;;;;;;;;4963096;28;20038;-87
2022/01/21 02:00:21;;;;;;;34.95;2.85;;;;;;;;;;4960069;28;20046;-86
2022/01/21 02:02:47;;;;;;;22.10;2.83;;;;;;;;;;4976345;28;20035;-86
2022/01/21 02:05:13;;;;;;;16.50;2.08;;;;;;;;;;4967523;28;20030;-86
2022/01/21 02:07:39;;;;;;;16.88;2.30;;;;;;;;;;4983780;28;20539;-86
2022/01/21 02:10:06;;;;;;;11.60;1.75;;;;;;;;;;4978844;28;20023;-86
2022/01/21 02:12:32;;;;;;;7.90;1.17;;;;;;;;;;4985204;28;20117;-86
2022/01/21 02:15:00;;;;;;;6.20;0.75;;;;;;;;;;4962445;28;20026;-86
2022/01/21 02:22:44;;;;;;;9.55;1.33;;;;;;;;;;4983483;28;20486;-86
2022/01/21 02:25:16;;;;;;;5.15;0.80;;;;;;;;;;4961132;28;20026;-86
2022/01/21 02:27:43;;;;;;;5.95;0.82;;;;;;;;;;4965662;28;20034;-86
2022/01/21 02:30:09;;;;;;;4.43;1.02;;;;;;;;;;4957929;28;20055;-86
2022/01/21 02:32:35;;;;;;;6.28;1.27;;;;;;;;;;4965256;28;20035;-86
2022/01/21 02:35:01;;;;;;;24.77;2.40;;;;;;;;;;4962712;28;20038;-86
2022/01/21 02:37:27;;;;;;;21.15;2.08;;;;;;;;;;4964828;28;20092;-86
2022/01/21 02:39:53;;;;;;;14.88;1.67;;;;;;;;;;4982585;28;20053;-86
2022/01/21 02:42:19;;;;;;;16.73;1.65;;;;;;;;;;4973917;28;20570;-86
2022/01/21 02:44:46;;;;;;;15.90;1.67;;;;;;;;;;4964855;28;20569;-86
2022/01/21 02:47:12;;;;;;;7.50;1.73;;;;;;;;;;4976585;28;20484;-86
2022/01/21 02:49:38;;;;;;;15.38;1.83;;;;;;;;;;4969296;28;20043;-86
2022/01/21 02:52:06;;;;;;;14.93;1.75;;;;;;;;;;4974441;28;20030;-86
2022/01/21 02:54:36;;;;;;;20.02;1.92;;;;;;;;;;4960025;28;20023;-86
2022/01/21 02:57:06;;;;;;;9.90;1.45;;;;;;;;;;4978598;28;20022;-86
2022/01/21 02:59:32;;;;;;;8.13;1.70;;;;;;;;;;4978214;28;20023;-86
2022/01/21 03:01:59;;;;;;;14.15;1.67;;;;;;;;;;4975981;28;20034;-86
2022/01/21 03:04:36;;;;;;;7.35;1.27;;;;;;;;;;4966056;28;20097;-86
2022/01/21 03:07:02;;;;;;;11.75;1.35;;;;;;;;;;4960511;28;20467;-86
2022/01/21 03:09:28;;;;;;;10.40;1.50;;;;;;;;;;4961864;28;20057;-86
2022/01/21 03:11:54;;;;;;;11.23;1.33;;;;;;;;;;4962536;28;20495;-86
2022/01/21 03:14:20;;;;;;;13.18;0.63;;;;;;;;;;4974769;28;20097;-86
2022/01/21 03:16:46;;;;;;;10.30;1.30;;;;;;;;;;4959854;28;20037;-86
2022/01/21 03:19:19;;;;;;;7.55;1.05;;;;;;;;;;4966360;28;20401;-86
2022/01/21 03:21:45;;;;;;;13.55;1.20;;;;;;;;;;4951866;28;20042;-86
2022/01/21 03:24:11;;;;;;;11.65;1.10;;;;;;;;;;4981686;28;20282;-86
2022/01/21 03:26:37;;;;;;;3.00;0.68;;;;;;;;;;4961889;28;20050;-86
2022/01/21 03:29:04;;;;;;;9.93;0.93;;;;;;;;;;4964565;28;20447;-86
2022/01/21 03:31:31;;;;;;;8.15;0.82;;;;;;;;;;4962256;28;20034;-86
2022/01/21 03:34:01;;;;;;;9.38;1.20;;;;;;;;;;4965853;28;20542;-86
2022/01/21 03:36:28;;;;;;;3.67;1.10;;;;;;;;;;4963260;28;20121;-86
2022/01/21 03:38:54;;;;;;;7.60;1.08;;;;;;;;;;4960987;28;20054;-86
2022/01/21 03:41:20;;;;;;;13.88;1.30;;;;;;;;;;4961790;28;20054;-86
2022/01/21 03:43:47;;;;;;;7.32;1.27;;;;;;;;;;4965419;28;20058;-86
2022/01/21 03:46:14;;;;;;;18.67;1.23;;;;;;;;;;4979377;28;20042;-86
2022/01/21 03:48:40;;;;;;;7.53;1.17;;;;;;;;;;4959274;28;20032;-86
2022/01/21 03:51:06;;;;;;;15.13;1.33;;;;;;;;;;4973995;28;20030;-86
2022/01/21 03:53:32;;;;;;;8.07;1.35;;;;;;;;;;4961329;28;20450;-86
2022/01/21 03:55:58;;;;;;;12.00;1.83;;;;;;;;;;4965055;28;20124;-86
2022/01/21 03:58:24;;;;;;;14.02;1.38;;;;;;;;;;4962185;28;20050;-86
2022/01/21 04:00:51;;;;;;;8.43;1.35;;;;;;;;;;4979774;28;20428;-85
2022/01/21 04:03:17;;;;;;;9.15;1.17;;;;;;;;;;4962273;28;20449;-86
2022/01/21 04:05:44;;;;;;;5.10;1.00;;;;;;;;;;4981339;28;20027;-86
2022/01/21 04:08:10;;;;;;;7.78;1.25;;;;;;;;;;4959498;28;20514;-86
2022/01/21 04:10:42;;;;;;;11.13;1.52;;;;;;;;;;4980776;28;20030;-86
2022/01/21 04:13:16;;;;;;;9.98;1.70;;;;;;;;;;4980280;28;20591;-86
2022/01/21 04:15:42;;;;;;;11.82;1.45;;;;;;;;;;4967127;28;20041;-86
2022/01/21 04:18:09;;;;;;;11.68;1.70;;;;;;;;;;4978573;28;20033;-87
2022/01/21 04:20:35;;;;;;;10.85;1.50;;;;;;;;;;4986545;28;20042;-86
2022/01/21 04:23:01;;;;;;;11.38;2.25;;;;;;;;;;4967126;28;20034;-86
2022/01/21 04:25:27;;;;;;;13.48;1.55;;;;;;;;;;4958765;28;20563;-86
2022/01/21 04:27:53;;;;;;;17.15;2.08;;;;;;;;;;4968853;28;20497;-86
2022/01/21 04:30:19;;;;;;;18.35;2.38;;;;;;;;;;4962852;28;20106;-86
2022/01/21 04:32:45;;;;;;;16.15;2.22;;;;;;;;;;4967745;28;20030;-86
2022/01/21 04:35:11;;;;;;;11.20;2.08;;;;;;;;;;4965964;28;20045;-86
2022/01/21 04:37:43;;;;;;;9.18;1.85;;;;;;;;;;4964135;28;20034;-86
2022/01/21 04:40:13;;;;;;;12.73;1.75;;;;;;;;;;4955144;28;20410;-86
2022/01/21 04:48:08;;;;;;;7.78;1.98;;;;;;;;;;4958003;28;20335;-85
2022/01/21 04:50:41;;;;;;;12.13;3.17;;;;;;;;;;4948002;28;20031;-86
2022/01/21 04:53:08;;;;;;;18.52;2.20;;;;;;;;;;4947765;28;20031;-86
2022/01/21 04:55:35;;;;;;;15.13;2.17;;;;;;;;;;4956881;28;20480;-86
2022/01/21 04:58:01;;;;;;;17.67;2.47;;;;;;;;;;4943779;28;20603;-86
2022/01/21 05:00:27;;;;;;;12.98;2.08;;;;;;;;;;4959874;28;20130;-86
2022/01/21 05:02:53;;;;;;;27.60;2.25;;;;;;;;;;4945668;28;20530;-86
2022/01/21 05:05:19;;;;;;;12.75;2.42;;;;;;;;;;4958178;28;20120;-85
2022/01/21 05:07:46;;;;;;;12.07;1.20;;;;;;;;;;4946495;28;20029;-86
2022/01/21 05:10:12;;;;;;;14.18;1.85;;;;;;;;;;4959830;28;20031;-86
2022/01/21 05:12:38;;;;;;;10.68;1.67;;;;;;;;;;4959767;28;20047;-86
2022/01/21 05:15:25;;;;;;;19.02;2.83;;;;;;;;;;4952924;28;20043;-86
2022/01/21 05:17:51;;;;;;;12.45;1.42;;;;;;;;;;4963245;28;20027;-85
2022/01/21 05:20:18;;;;;;;8.02;1.40;;;;;;;;;;4944858;28;20392;-86
2022/01/21 05:22:44;;;;;;;10.52;1.65;;;;;;;;;;4958633;28;20507;-85
2022/01/21 05:25:16;;;;;;;19.02;1.80;;;;;;;;;;4956746;28;20039;-86
2022/01/21 05:27:44;;;;;;;11.65;2.00;;;;;;;;;;4945112;28;20175;-86
2022/01/21 05:30:10;;;;;;;20.90;2.05;;;;;;;;;;4948651;28;20069;-85
2022/01/21 05:32:36;;;;;;;33.17;2.03;;;;;;;;;;4943549;28;20190;-86
2022/01/21 05:35:03;;;;;;;13.85;2.13;;;;;;;;;;4958989;28;20038;-86
2022/01/21 05:37:29;;;;;;;7.63;1.38;;;;;;;;;;4945846;28;20031;-86
2022/01/21 05:39:55;;;;;;;12.70;1.90;;;;;;;;;;4969217;28;20042;-86
2022/01/21 05:42:21;;;;;;;13.30;2.53;;;;;;;;;;4960856;28;20493;-86
2022/01/21 05:47:14;;;;;;;22.95;2.90;;;;;;;;;;4980139;28;20383;-86
2022/01/21 05:49:40;;;;;;;18.08;2.28;;;;;;;;;;4965782;28;20034;-86
2022/01/21 05:52:11;;;;;;;9.38;1.80;;;;;;;;;;4964616;28;20027;-85
2022/01/21 05:54:37;;;;;;;7.20;1.42;;;;;;;;;;4974554;28;20026;-86
2022/01/21 05:57:06;;;;;;;9.95;2.15;;;;;;;;;;4967020;28;20113;-86
2022/01/21 05:59:32;;;;;;;16.65;1.85;;;;;;;;;;4960783;28;20030;-86
2022/01/21 06:01:58;;;;;;;9.98;1.33;;;;;;;;;;4961588;28;20030;-85
2022/01/21 06:04:24;;;;;;;12.63;2.50;;;;;;;;;;4963953;28;20113;-85
2022/01/21 06:06:50;;;;;;;16.05;1.95;;;;;;;;;;4968813;28;20121;-86
2022/01/21 06:09:16;;;;;;;19.13;2.42;;;;;;;;;;4978455;28;20415;-86
2022/01/21 06:11:42;;;;;;;20.05;2.10;;;;;;;;;;4975679;28;20093;-86
2022/01/21 06:14:08;;;;;;;29.85;2.35;;;;;;;;;;4982698;28;20018;-85
2022/01/21 06:16:35;;;;;;;20.42;2.03;;;;;;;;;;4962411;28;20542;-86
2022/01/21 06:19:01;;;;;;;13.65;1.85;;;;;;;;;;4965444;28;20031;-86
2022/01/21 06:21:27;;;;;;;25.40;2.88;;;;;;;;;;4961920;28;20164;-86
2022/01/21 06:23:56;;;;;;;19.17;2.08;;;;;;;;;;4964906;28;20026;-86
2022/01/21 06:26:22;;;;;;;19.15;1.98;;;;;;;;;;4979314;28;20037;-86
2022/01/21 06:28:48;;;;;;;13.48;2.05;;;;;;;;;;4968065;28;20453;-86
2022/01/21 06:31:14;;;;;;;14.85;2.25;;;;;;;;;;4963009;28;20149;-86
2022/01/21 06:33:40;;;;;;;13.57;2.00;;;;;;;;;;4962328;28;20101;-86
2022/01/21 06:36:07;;;;;;;5.90;1.05;;;;;;;;;;4973201;28;20050;-86
2022/01/21 06:38:35;;;;;;;15.10;1.25;;;;;;;;;;4980369;28;22451;-86
2022/01/21 06:41:01;;;;;;;8.48;1.70;;;;;;;;;;4977182;28;20809;-86
2022/01/21 06:43:27;;;;;;;17.48;2.17;;;;;;;;;;4976834;28;20038;-86
2022/01/21 06:45:54;;;;;;;6.68;1.50;;;;;;;;;;4962856;28;20491;-86
2022/01/21 06:48:20;;;;;;;18.65;1.88;;;;;;;;;;4957812;28;20034;-86
2022/01/21 06:50:46;;;;;;;13.48;3.20;;;;;;;;;;4969737;28;20048;-86
2022/01/21 06:53:12;;;;;;;18.10;2.63;;;;;;;;;;4957946;28;20122;-89
2022/01/21 06:55:38;;;;;;;20.83;2.45;;;;;;;;;;4967243;28;20246;-89
2022/01/21 06:58:05;;;;;;;13.85;1.70;;;;;;;;;;4959189;28;20558;-85
2022/01/21 07:00:31;;;;;;;21.85;2.15;;;;;;;;;;4967828;28;20034;-86
2022/01/21 07:02:57;;;;;;;8.90;1.95;;;;;;;;;;4968590;28;20117;-85
2022/01/21 07:05:30;;;;;;;15.88;2.00;;;;;;;;;;4965908;28;20038;-85
2022/01/21 07:07:58;;;;;;;16.75;1.73;;;;;;;;;;4974194;28;20479;-86
2022/01/21 07:10:25;;;;;;;16.33;2.03;;;;;;;;;;4959508;28;20030;-85
2022/01/21 07:12:51;;;;;;;18.30;2.55;;;;;;;;;;4971493;28;20077;-85
2022/01/21 07:15:19;;;;;;;20.40;2.20;;;;;;;;;;4958504;28;20037;-84
2022/01/21 07:17:46;;;;;;;28.85;2.20;;;;;;;;;;4960707;28;20491;-85
2022/01/21 07:20:12;;;;;;;25.08;2.58;;;;;;;;;;4974621;28;20030;-85
2022/01/21 07:22:38;;;;;;;19.17;2.70;;;;;;;;;;4973893;28;20581;-85
2022/01/21 07:25:05;;;;;;;20.45;2.22;;;;;;;;;;4959169;28;20065;-85
2022/01/21 07:27:31;;;;;;;27.25;2.60;;;;;;;;;;4975705;28;20027;-86
2022/01/21 07:29:57;;;;;;;11.90;2.20;;;;;;;;;;4957265;28;20022;-85
2022/01/21 07:32:23;;;;;;;30.98;3.22;;;;;;;;;;4955995;28;20070;-85
2022/01/21 07:34:49;;;;;;;21.70;2.70;;;;;;;;;;4960790;28;20394;-86
2022/01/21 07:37:15;;;;;;;13.40;2.85;;;;;;;;;;4953015;28;20030;-89
2022/01/21 07:39:41;;;;;;;14.50;2.35;;;;;;;;;;4958085;28;20038;-89
2022/01/21 07:42:08;;;;;;;13.63;2.13;;;;;;;;;;4938570;28;20843;-85
2022/01/21 07:44:34;;;;;;;20.42;2.72;;;;;;;;;;4945633;28;20037;-85
2022/01/21 07:47:00;;;;;;;18.80;2.38;;;;;;;;;;4951098;28;20043;-86
2022/01/21 07:49:26;;;;;;;36.65;2.65;;;;;;;;;;4945925;28;20078;-85
2022/01/21 07:51:52;;;;;;;22.92;3.13;;;;;;;;;;4942415;28;20038;-86
2022/01/21 07:54:18;;;;;;;15.30;2.95;;;;;;;;;;4944424;28;20472;-88
2022/01/21 07:56:44;;;;;;;29.88;2.97;;;;;;;;;;4940753;28;20039;-86
2022/01/21 07:59:24;;;;;;;19.65;2.72;;;;;;;;;;4944223;28;20039;-86
2022/01/21 08:01:53;;;;;;;31.00;2.60;;;;;;;;;;4942102;28;20515;-86
2022/01/21 08:04:19;;;;;;;31.23;3.45;;;;;;;;;;4949022;28;20058;-85
2022/01/21 08:06:45;;;;;;;21.77;2.70;;;;;;;;;;4942760;28;20394;-87
2022/01/21 08:09:11;;;;;;;28.20;2.58;;;;;;;;;;4942940;28;20035;-86
2022/01/21 08:11:37;;;;;;;16.02;3.22;;;;;;;;;;4945521;28;20059;-86
2022/01/21 08:14:03;;;;;;;25.33;2.28;;;;;;;;;;4953925;28;20493;-85
2022/01/21 08:16:29;;;;;;;22.98;3.33;;;;;;;;;;4941657;28;20106;-85
2022/01/21 08:18:56;;;;;;;38.35;4.75;;;;;;;;;;4941565;28;20062;-85
2022/01/21 08:21:29;;;;;;;25.70;2.90;;;;;;;;;;4946007;28;20050;-87
2022/01/21 08:23:56;;;;;;;36.22;3.47;;;;;;;;;;4940118;28;20039;-85
2022/01/21 08:26:27;;;;;;;42.38;4.43;;;;;;;;;;4955451;28;20035;-85
2022/01/21 08:28:54;;;;;;;25.13;2.63;;;;;;;;;;4953278;28;20022;-85
2022/01/21 08:31:20;;;;;;;22.67;3.30;;;;;;;;;;4943014;28;20038;-87
2022/01/21 08:33:46;;;;;;;22.38;2.65;;;;;;;;;;4956406;28;20475;-83
2022/01/21 08:36:12;;;;;;;21.58;2.80;;;;;;;;;;4941628;28;20261;-86
2022/01/21 08:38:39;;;;;;;25.58;3.13;;;;;;;;;;4943578;28;20039;-86
2022/01/21 08:41:05;;;;;;;16.17;2.53;;;;;;;;;;4953000;28;20059;-85
2022/01/21 08:43:31;;;;;;;24.20;3.22;;;;;;;;;;4945341;28;20039;-86
2022/01/21 08:45:57;;;;;;;21.20;2.78;;;;;;;;;;4941934;28;20045;-85
2022/01/21 08:48:23;;;;;;;29.27;3.20;;;;;;;;;;4944732;28;20031;-85
2022/01/21 08:50:49;;;;;;;24.35;3.45;;;;;;;;;;4959734;28;20527;-85
2022/01/21 08:56:00;;;;;;;23.77;2.92;;;;;;;;;;4961957;28;20073;-85
2022/01/21 08:58:26;;;;;;;24.33;3.15;;;;;;;;;;4949477;28;20039;-85
2022/01/21 09:00:53;;;;;;;28.90;2.83;;;;;;;;;;4949657;28;20073;-85
2022/01/21 09:03:19;;;;;;;31.55;3.53;;;;;;;;;;4947654;28;20506;-85
2022/01/21 09:05:48;;;;;;;25.83;3.95;;;;;;;;;;4948179;28;20035;-85
2022/01/21 09:08:18;;;;;;;27.83;3.60;;;;;;;;;;4946349;28;20031;-85
2022/01/21 09:10:45;;;;;;;43.30;4.10;;;;;;;;;;4962783;28;20023;-85
2022/01/21 09:13:11;;;;;;;24.40;3.53;;;;;;;;;;4960151;28;20046;-85
2022/01/21 09:15:37;;;;;;;31.25;3.33;;;;;;;;;;4960581;28;20038;-85
2022/01/21 09:18:05;;;;;;;33.63;3.53;;;;;;;;;;4951722;28;20413;-86
2022/01/21 09:20:35;;;;;;;31.98;3.53;;;;;;;;;;4946292;28;20035;-85
2022/01/21 09:23:01;;;;;;;30.35;2.95;;;;;;;;;;4940055;28;20555;-85
2022/01/21 09:25:27;;;;;;;15.93;2.20;;;;;;;;;;4945421;28;20057;-85
2022/01/21 09:27:53;;;;;;;19.00;2.95;;;;;;;;;;4949896;28;20033;-85
2022/01/21 09:30:20;;;;;;;30.95;3.33;;;;;;;;;;4947271;28;20464;-85
2022/01/21 09:32:46;;;;;;;26.83;3.45;;;;;;;;;;4947283;28;20041;-85
2022/01/21 09:35:12;;;;;;;22.17;3.03;;;;;;;;;;4948291;28;20498;-86
2022/01/21 09:37:38;;;;;;;29.65;3.38;;;;;;;;;;4945132;28;20026;-85
2022/01/21 09:40:05;;;;;;;19.70;3.55;;;;;;;;;;4968629;28;20438;-85
2022/01/21 09:42:33;;;;;;;35.30;4.53;;;;;;;;;;4966893;28;20034;-85
2022/01/21 09:44:59;;;;;;;32.78;3.53;;;;;;;;;;4980030;28;20176;-86
2022/01/21 09:47:25;;;;;;;29.90;2.60;;;;;;;;;;4964080;28;20402;-85
2022/01/21 09:49:52;;;;;;;27.65;4.82;;;;;;;;;;4980586;28;20578;-86
2022/01/21 09:52:21;;;;;;;22.08;3.20;;;;;;;;;;4958684;28;20344;-85
2022/01/21 09:54:48;;;;;;;24.00;3.47;;;;;;;;;;4968550;28;20400;-86
2022/01/21 09:57:32;;;;;;;36.92;4.28;;;;;;;;;;4979225;28;20023;-86
2022/01/21 09:59:59;;;;;;;21.63;4.05;;;;;;;;;;4968773;28;20034;-85
2022/01/21 10:02:27;;;;;;;21.98;3.40;;;;;;;;;;4965379;28;20043;-85
2022/01/21 10:04:53;;;;;;;20.60;3.10;;;;;;;;;;4966438;28;20395;-86
2022/01/21 10:07:21;;;;;;;17.88;1.60;;;;;;;;;;4966791;28;20033;-85
2022/01/21 10:09:48;;;;;;;33.25;4.05;;;;;;;;;;4965330;28;20645;-85
2022/01/21 10:12:15;;;;;;;26.02;2.95;;;;;;;;;;4969301;28;20027;-85
2022/01/21 10:14:41;;;;;;;20.55;3.42;;;;;;;;;;4965552;28;20252;-85
2022/01/21 10:17:08;;;;;;;36.33;3.92;;;;;;;;;;4961346;28;20031;-87
2022/01/21 10:19:35;;;;;;;33.75;3.67;;;;;;;;;;4954536;28;20022;-87
2022/01/21 10:22:06;;;;;;;30.55;4.85;;;;;;;;;;4974795;28;20120;-85
2022/01/21 10:24:34;;;;;;;25.02;4.32;;;;;;;;;;4980934;28;20027;-87
2022/01/21 10:27:00;;;;;;;25.73;3.15;;;;;;;;;;4961412;28;20117;-86
2022/01/21 10:29:40;;;;;;;17.02;3.20;;;;;;;;;;4964645;28;20033;-85
2022/01/21 10:32:07;;;;;;;17.92;5.80;;;;;;;;;;4952678;28;20067;-86
2022/01/21 10:34:45;;;;;;;24.48;4.13;;;;;;;;;;4975073;28;20041;-87
2022/01/21 10:37:25;;;;;;;18.60;3.72;;;;;;;;;;4970508;28;20039;-85
2022/01/21 10:39:55;;;;;;;20.80;3.38;;;;;;;;;;4952854;28;20035;-86
2022/01/21 10:42:28;;;;;;;21.10;2.95;;;;;;;;;;4957587;28;20052;-88
2022/01/21 10:44:55;;;;;;;16.50;2.85;;;;;;;;;;4974150;28;20444;-88
2022/01/21 10:47:25;;;;;;;33.05;2.72;;;;;;;;;;4963493;28;20032;-86
2022/01/21 10:50:17;;;;;;;22.33;2.80;;;;;;;;;;4976579;28;20027;-85
2022/01/21 10:52:50;;;;;;;18.58;1.92;;;;;;;;;;4973380;28;20042;-85
2022/01/21 10:55:29;;;;;;;14.07;2.53;;;;;;;;;;4966527;28;20491;-85
2022/01/21 10:58:12;;;;;;;20.45;2.05;;;;;;;;;;4964347;28;20038;-85
2022/01/21 11:00:39;;;;;;;14.48;2.30;;;;;;;;;;4980833;28;20038;-85
2022/01/21 11:03:10;;;;;;;19.55;3.03;;;;;;;;;;4966341;28;20035;-85
2022/01/21 11:05:40;;;;;;;22.77;2.72;;;;;;;;;;4961957;28;20034;-85
2022/01/21 11:08:09;;;;;;;14.23;2.53;;;;;;;;;;4966129;28;20053;-86
2022/01/21 11:10:37;;;;;;;11.43;1.95;;;;;;;;;;4965035;28;20125;-85
2022/01/21 11:13:23;;;;;;;17.95;2.47;;;;;;;;;;4980317;28;20521;-85
2022/01/21 11:16:00;;;;;;;23.27;3.90;;;;;;;;;;4960848;28;20034;-85
2022/01/21 11:18:28;;;;;;;14.25;1.40;;;;;;;;;;4981455;28;20031;-85
2022/01/21 11:21:07;;;;;;;33.45;3.63;;;;;;;;;;4964198;28;20042;-85
2022/01/21 11:23:34;;;;;;;14.63;2.03;;;;;;;;;;4971332;28;20068;-85
2022/01/21 11:26:03;;;;;;;14.20;2.00;;;;;;;;;;4982191;28;20084;-86
2022/01/21 11:28:42;;;;;;;14.77;2.13;;;;;;;;;;4966205;28;20060;-86
2022/01/21 11:31:08;;;;;;;11.23;1.70;;;;;;;;;;4962702;28;20140;-85
2022/01/21 11:33:34;;;;;;;15.10;2.38;;;;;;;;;;4981244;28;20023;-86
2022/01/21 11:36:01;;;;;;;17.42;2.10;;;;;;;;;;4966935;28;20523;-85
2022/01/21 11:38:28;;;;;;;19.25;2.97;;;;;;;;;;4975989;28;20085;-86
2022/01/21 11:40:56;;;;;;;12.07;1.85;;;;;;;;;;4966574;28;20138;-87
2022/01/21 11:43:23;;;;;;;8.93;1.50;;;;;;;;;;4959118;28;20051;-88
2022/01/21 11:50:51;;;;;;;6.43;0.80;;;;;;;;;;4962351;28;20499;-87
2022/01/21 11:53:36;;;;;;;27.00;2.75;;;;;;;;;;4947985;28;20037;-87
2022/01/21 11:56:06;;;;;;;7.32;2.55;;;;;;;;;;4958602;28;20027;-87
2022/01/21 11:58:32;;;;;;;14.95;2.38;;;;;;;;;;4952485;28;20030;-87
2022/01/21 12:01:05;;;;;;;14.63;2.42;;;;;;;;;;4944594;28;20108;-89
2022/01/21 12:03:51;;;;;;;4.53;1.30;;;;;;;;;;4961380;28;20035;-86
2022/01/21 12:06:33;;;;;;;8.55;1.58;;;;;;;;;;4955241;28;20053;-86
2022/01/21 12:09:00;;;;;;;12.00;1.90;;;;;;;;;;4953843;28;20023;-87
2022/01/21 12:11:35;;;;;;;14.30;2.15;;;;;;;;;;4962349;28;20049;-86
2022/01/21 12:14:04;;;;;;;8.95;1.52;;;;;;;;;;4966294;28;20026;-86
2022/01/21 12:16:51;;;;;;;17.98;1.73;;;;;;;;;;4955109;28;20127;-85
2022/01/21 12:19:22;;;;;;;17.15;2.30;;;;;;;;;;4956960;28;20034;-86
2022/01/21 12:21:48;;;;;;;15.93;1.92;;;;;;;;;;4966061;28;20026;-86
2022/01/21 12:24:16;;;;;;;12.00;1.50;;;;;;;;;;4946827;28;20039;-86
2022/01/21 12:26:59;;;;;;;13.65;1.65;;;;;;;;;;4964249;28;20056;-86
2022/01/21 12:29:26;;;;;;;8.68;1.45;;;;;;;;;;4961401;28;20062;-88
2022/01/21 12:32:21;;;;;;;20.25;1.95;;;;;;;;;;4958559;28;20027;-86
2022/01/21 12:35:01;;;;;;;13.40;1.40;;;;;;;;;;4966506;28;20151;-93
2022/01/21 12:37:39;;;;;;;13.27;1.70;;;;;;;;;;4963834;28;20073;-92
2022/01/21 12:40:06;;;;;;;10.02;2.03;;;;;;;;;;4954941;28;20042;-86
2022/01/21 12:42:35;;;;;;;6.38;1.25;;;;;;;;;;4965218;28;20077;-90
2022/01/21 12:45:07;;;;;;;12.25;2.00;;;;;;;;;;4986268;28;20125;-88
2022/01/21 12:47:39;;;;;;;14.45;1.80;;;;;;;;;;4968712;28;20049;-92
2022/01/21 12:50:14;;;;;;;4.53;0.77;;;;;;;;;;4967540;28;20383;-86
2022/01/21 12:52:53;;;;;;;15.55;1.92;;;;;;;;;;4970830;28;20197;-86
2022/01/21 12:58:32;;;;;;;25.25;2.00;;;;;;;;;;4933203;28;20599;-86
2022/01/21 13:01:02;;;;;;;15.43;2.47;;;;;;;;;;4931662;28;20064;-86
2022/01/21 13:03:32;;;;;;;21.23;2.53;;;;;;;;;;4950856;28;20053;-87
2022/01/21 13:06:11;;;;;;;11.52;2.03;;;;;;;;;;4959538;28;20030;-87
2022/01/21 13:08:39;;;;;;;19.05;2.58;;;;;;;;;;4974252;28;20030;-87
2022/01/21 13:11:13;;;;;;;25.38;4.72;;;;;;;;;;4952512;28;20046;-86
2022/01/21 13:13:58;;;;;;;7.22;1.83;;;;;;;;;;4962011;28;20030;-86
2022/01/21 13:16:28;;;;;;;15.48;2.28;;;;;;;;;;4966190;28;20030;-86
2022/01/21 13:19:01;;;;;;;25.63;2.10;;;;;;;;;;4975507;28;20026;-85
2022/01/21 13:21:34;;;;;;;13.25;2.10;;;;;;;;;;4980199;28;20061;-86
2022/01/21 13:24:10;;;;;;;15.57;3.05;;;;;;;;;;4976831;28;20034;-86
2022/01/21 13:26:36;;;;;;;17.38;2.45;;;;;;;;;;4954935;28;20045;-86
2022/01/21 13:29:02;;;;;;;8.13;1.65;;;;;;;;;;4965421;28;20435;-86
2022/01/21 13:31:29;;;;;;;22.48;2.50;;;;;;;;;;4961799;28;20055;-87
2022/01/21 13:34:16;;;;;;;22.42;2.20;;;;;;;;;;4958394;28;20038;-86
2022/01/21 13:36:42;;;;;;;;;;;;;;;;;;4962061;28;20036;-86
2022/01/21 13:39:11;;;;;;;11.77;1.88;;;;;;;;;;4963748;28;19914;-87
2022/01/21 13:41:55;;;;;;;22.70;1.60;;;;;;;;;;4977078;28;21492;-86
2022/01/21 13:44:24;;;;;;;18.92;3.13;;;;;;;;;;4959175;28;20085;-87
2022/01/21 13:46:50;;;;;;;15.50;1.73;;;;;;;;;;4978642;28;20735;-86
2022/01/21 13:49:21;;;;;;;17.38;2.58;;;;;;;;;;4962406;28;20037;-87
2022/01/21 13:52:00;;;;;;;12.65;2.15;;;;;;;;;;4976816;28;20030;-87
2022/01/21 13:54:37;;;;;;;15.48;3.22;;;;;;;;;;4969715;28;20026;-87
2022/01/21 13:57:04;;;;;;;18.27;2.83;;;;;;;;;;4964135;28;20554;-86
2022/01/21 13:59:30;;;;;;;5.43;1.88;;;;;;;;;;4959628;28;20034;-86
2022/01/21 14:02:10;;;;;;;18.17;1.60;;;;;;;;;;4981907;28;20530;-87
2022/01/21 14:04:36;;;;;;;17.83;2.33;;;;;;;;;;4958949;28;20037;-87
2022/01/21 14:07:05;;;;;;;14.70;2.97;;;;;;;;;;4972774;28;20487;-87
2022/01/21 14:09:31;;;;;;;15.23;2.42;;;;;;;;;;4961682;28;20030;-88
2022/01/21 14:11:58;;;;;;;7.20;2.30;;;;;;;;;;4978095;28;20476;-86
2022/01/21 14:14:24;;;;;;;14.80;2.25;;;;;;;;;;4976803;28;20516;-86
2022/01/21 14:16:54;;;;;;;26.95;3.38;;;;;;;;;;4955448;28;20029;-87
2022/01/21 14:19:22;;;;;;;9.05;2.22;;;;;;;;;;4963153;28;20073;-87
2022/01/21 14:21:50;;;;;;;5.93;0.80;;;;;;;;;;4970767;28;20050;-87
2022/01/21 14:24:23;;;;;;;13.02;1.95;;;;;;;;;;4965285;28;20316;-87
2022/01/21 14:26:50;;;;;;;9.43;2.75;;;;;;;;;;4959381;28;20038;-87
2022/01/21 14:29:37;;;;;;;13.23;2.65;;;;;;;;;;4973857;28;20028;-87
2022/01/21 14:32:22;;;;;;;11.15;1.50;;;;;;;;;;4977517;28;20105;-87
2022/01/21 14:34:48;;;;;;;17.93;2.83;;;;;;;;;;4973714;28;20089;-87
2022/01/21 14:37:16;;;;;;;19.35;2.53;;;;;;;;;;4961135;28;20418;-87
2022/01/21 14:39:44;;;;;;;27.05;2.40;;;;;;;;;;4971309;28;20062;-87
2022/01/21 14:42:10;;;;;;;19.55;4.30;;;;;;;;;;4963773;28;20074;-87
2022/01/21 14:44:44;;;;;;;19.67;3.75;;;;;;;;;;4960508;28;20538;-87
2022/01/21 14:47:12;;;;;;;24.23;2.05;;;;;;;;;;4959301;28;20105;-87
2022/01/21 14:49:39;;;;;;;13.48;2.65;;;;;;;;;;4958207;28;20172;-86
2022/01/21 14:54:51;;;;;;;20.77;2.35;;;;;;;;;;4977468;28;20049;-87
2022/01/21 14:57:17;;;;;;;22.02;2.17;;;;;;;;;;4963279;28;20054;-87
2022/01/21 14:59:53;;;;;;;12.07;1.55;;;;;;;;;;4963270;28;20846;-87
2022/01/21 15:02:46;;;;;;;12.85;1.90;;;;;;;;;;4956762;28;20053;-87
2022/01/21 15:05:14;;;;;;;23.08;2.10;;;;;;;;;;4958359;28;20049;-89
2022/01/21 15:07:42;;;;;;;23.38;2.88;;;;;;;;;;4952124;28;20034;-88
2022/01/21 15:10:23;;;;;;;15.88;2.25;;;;;;;;;;4968079;28;20267;-90
2022/01/21 15:15:35;;;;;;;26.42;2.70;;;;;;;;;;4975546;28;20106;-88
2022/01/21 15:18:02;;;;;;;15.07;3.03;;;;;;;;;;4967965;28;20499;-86
2022/01/21 15:20:36;;;;;;;12.18;1.98;;;;;;;;;;4962613;28;20038;-88
2022/01/21 15:23:02;;;;;;;6.82;1.23;;;;;;;;;;4958955;28;20378;-88
2022/01/21 15:25:39;;;;;;;18.85;1.85;;;;;;;;;;4971527;28;20042;-94
2022/01/21 15:28:06;;;;;;;8.25;1.75;;;;;;;;;;4973669;28;20491;-90
2022/01/21 15:30:40;;;;;;;14.13;1.75;;;;;;;;;;4952989;28;20391;-87
2022/01/21 15:33:06;;;;;;;5.30;1.92;;;;;;;;;;4965317;28;20434;-87
2022/01/21 15:35:32;;;;;;;10.02;1.15;;;;;;;;;;4959647;28;20295;-87
2022/01/21 15:37:58;;;;;;;8.63;1.63;;;;;;;;;;4963274;28;20102;-87
2022/01/21 15:40:24;;;;;;;11.60;1.13;;;;;;;;;;4961426;28;20069;-86
2022/01/21 15:43:03;;;;;;;6.75;1.55;;;;;;;;;;4950920;28;20047;-86
2022/01/21 15:45:29;;;;;;;10.65;1.25;;;;;;;;;;4945469;28;20444;-87
2022/01/21 15:47:55;;;;;;;10.75;0.77;;;;;;;;;;4959201;28;20035;-87